Time;durP1;ratioP1;P1;durP2;ratioP2;P2;SDS_P1;SDS_P2;PMS_P1;PMS_P2;Temp;Humidity;BMP_temperature;BMP_pressure;BME280_temperature;BME280_humidity;BME280_pressure;Samples;Min_cycle;Max_cycle;Signal;HPM_P1;HPM_P2
2023/04/10 00:01:55;;;;;;;;;;;;;;;7.70;63.76;101180.13;5315214;32;34432;-68
2023/04/10 00:04:57;;;;;;;;;;;;;;;7.63;64.79;101191.56;5313840;32;34122;-81
2023/04/10 00:08:00;;;;;;;;;;;;;;;8.01;63.18;101181.38;5320919;32;33593;-67
2023/04/10 00:11:02;;;;;;;;;;;;;;;7.50;64.77;101175.16;5327735;32;32822;-74
2023/04/10 00:14:04;;;;;;;;;;;;;;;7.22;66.97;101172.94;5313160;32;33012;-67
2023/04/10 00:17:06;;;;;;;;;;;;;;;7.49;65.39;101169.06;5309972;32;33661;-78
2023/04/10 00:20:08;;;;;;;;;;;;;;;8.65;61.12;101163.72;5300686;32;34311;-67
2023/04/10 00:23:10;;;;;;;;;;;;;;;8.49;60.41;101160.50;5326228;32;43665;-78
2023/04/10 00:26:12;;;;;;;;;;;;;;;8.49;61.01;101159.63;5328528;32;33811;-66
2023/04/10 00:29:14;;;;;;;;;;;;;;;7.50;63.79;101162.94;5331385;32;33675;-67
2023/04/10 00:32:16;;;;;;;;;;;;;;;7.59;64.52;101157.56;5307120;32;33878;-78
2023/04/10 00:35:19;;;;;;;;;;;;;;;7.63;64.24;101154.94;5323596;32;36557;-78
2023/04/10 00:38:21;;;;;;;;;;;;;;;7.88;63.25;101151.91;5307873;32;33052;-74
2023/04/10 00:41:23;;;;;;;;;;;;;;;7.83;63.49;101147.62;5301416;32;33762;-66
2023/04/10 00:44:24;;;;;;;;;;;;;;;7.87;63.01;101151.94;5318554;32;33566;-78
2023/04/10 00:47:26;;;;;;;;;;;;;;;8.14;61.56;101145.37;5309878;32;33726;-67
2023/04/10 00:50:29;;;;;;;;;;;;;;;8.13;61.32;101144.53;5323208;32;33783;-73
2023/04/10 00:53:31;;;;;;;;;;;;;;;8.13;61.45;101144.53;5294673;32;33859;-68
2023/04/10 00:56:32;;;;;;;;;;;;;;;7.72;62.66;101147.78;5323354;32;33156;-67
2023/04/10 00:59:34;;;;;;;;;;;;;;;7.62;63.36;101150.59;5296133;32;33504;-78
2023/04/10 01:02:37;;;;;;;;;;;;;;;7.28;64.78;101141.47;5306830;32;34712;-78
2023/04/10 01:06:05;;;;;;;;;;;;;;;7.87;62.60;101136.25;5323768;32;34228;-66
2023/04/10 01:09:09;;;;;;;;;;;;;;;7.65;63.23;101140.06;5305192;32;34232;-66
2023/04/10 01:12:38;;;;;;;;;;;;;;;8.22;61.56;101135.63;5322296;32;44893;-66
2023/04/10 01:15:57;;;;;;;;;;;;;;;8.64;60.26;101134.03;5309655;32;34108;-80
2023/04/10 01:19:22;;;;;;;;;;;;;;;8.54;60.20;101131.59;5295773;32;34208;-69
2023/04/10 01:22:24;;;;;;;;;;;;;;;8.43;60.05;101136.16;5325722;32;33685;-75
2023/04/10 01:25:32;;;;;;;;;;;;;;;7.47;63.39;101136.84;5315628;32;33374;-79
2023/04/10 01:28:53;;;;;;;;;;;;;;;7.14;64.87;101137.28;5334550;32;33573;-80
2023/04/10 01:32:02;;;;;;;;;;;;;;;7.53;63.51;101136.72;5305536;32;33266;-78
2023/04/10 01:35:05;;;;;;;;;;;;;;;8.35;60.76;101133.66;5296692;32;33082;-66
2023/04/10 01:38:07;;;;;;;;;;;;;;;7.67;62.73;101127.84;5308104;32;33545;-79
2023/04/10 01:41:09;;;;;;;;;;;;;;;7.14;65.17;101137.28;5296256;32;33943;-65
2023/04/10 01:44:13;;;;;;;;;;;;;;;7.75;63.49;101137.28;5318797;32;44771;-77
2023/04/10 01:47:16;;;;;;;;;;;;;;;8.23;61.76;101136.50;5293929;32;33732;-67
2023/04/10 01:50:19;;;;;;;;;;;;;;;8.30;61.45;101130.25;5301605;32;34166;-78
2023/04/10 01:53:21;;;;;;;;;;;;;;;8.25;61.29;101132.13;5311211;32;33780;-66
2023/04/10 01:56:23;;;;;;;;;;;;;;;8.47;60.92;101130.00;5296195;32;33914;-66
2023/04/10 01:59:25;;;;;;;;;;;;;;;8.83;59.42;101125.81;5321932;32;33821;-72
2023/04/10 02:02:30;;;;;;;;;;;;;;;8.49;60.41;101131.69;5295306;32;34613;-67
2023/04/10 02:05:38;;;;;;;;;;;;;;;7.90;62.02;101124.84;5328399;32;33572;-80
2023/04/10 02:08:54;;;;;;;;;;;;;;;7.24;65.15;101133.69;5293938;32;45499;-67
2023/04/10 02:11:59;;;;;;;;;;;;;;;7.72;64.19;101126.84;5295341;32;34234;-78
2023/04/10 02:15:01;;;;;;;;;;;;;;;7.18;65.00;101128.53;5330483;32;34145;-74
2023/04/10 02:18:03;;;;;;;;;;;;;;;7.73;64.01;101130.34;5305976;32;33123;-73
2023/04/10 02:21:06;;;;;;;;;;;;;;;7.85;63.24;101128.37;5308314;32;32581;-66
2023/04/10 02:24:08;;;;;;;;;;;;;;;7.66;63.78;101131.31;5309269;32;32925;-66
2023/04/10 02:27:10;;;;;;;;;;;;;;;7.47;64.25;101136.84;5316976;32;34143;-79
2023/04/10 02:30:11;;;;;;;;;;;;;;;7.01;65.96;101133.97;5283617;32;44702;-66
2023/04/10 02:33:13;;;;;;;;;;;;;;;7.18;66.30;101131.16;5302926;32;33745;-66
2023/04/10 02:36:15;;;;;;;;;;;;;;;7.58;64.90;101129.69;5335083;32;33437;-78
2023/04/10 02:39:17;;;;;;;;;;;;;;;6.97;66.39;101124.47;5324740;32;33270;-78
2023/04/10 02:42:19;;;;;;;;;;;;;;;7.40;65.41;101119.50;5322559;32;33267;-67
2023/04/10 02:45:21;;;;;;;;;;;;;;;8.26;62.32;101124.22;5327648;32;33701;-66
2023/04/10 02:48:23;;;;;;;;;;;;;;;8.39;61.56;101117.03;5312846;32;34651;-79
2023/04/10 02:51:25;;;;;;;;;;;;;;;7.46;64.53;101111.56;5298689;32;33421;-74
2023/04/10 02:54:27;;;;;;;;;;;;;;;7.29;65.33;101108.34;5309840;32;33560;-65
2023/04/10 02:57:29;;;;;;;;;;;;;;;7.61;65.08;101107.87;5323255;32;33476;-67
2023/04/10 03:00:32;;;;;;;;;;;;;;;7.41;65.57;101102.94;5297900;32;34353;-75
2023/04/10 03:03:34;;;;;;;;;;;;;;;7.92;64.28;101096.88;5322774;32;33377;-78
2023/04/10 03:06:36;;;;;;;;;;;;;;;7.70;63.10;101096.38;5318502;32;34150;-73
2023/04/10 03:09:38;;;;;;;;;;;;;;;6.86;66.26;101095.84;5318902;32;32513;-80
2023/04/10 03:12:40;;;;;;;;;;;;;;;6.85;67.76;101104.56;5316842;32;33096;-73
2023/04/10 03:15:42;;;;;;;;;;;;;;;7.38;65.97;101104.72;5295503;32;44571;-67
2023/04/10 03:18:44;;;;;;;;;;;;;;;7.76;64.59;101102.38;5322372;32;35290;-78
2023/04/10 03:21:46;;;;;;;;;;;;;;;7.86;63.58;101105.72;5298557;32;33606;-79
2023/04/10 03:24:48;;;;;;;;;;;;;;;7.08;66.38;101106.88;5321870;32;33617;-80
2023/04/10 03:27:50;;;;;;;;;;;;;;;7.04;66.91;101111.28;5311557;32;34288;-67
2023/04/10 03:30:52;;;;;;;;;;;;;;;7.02;67.27;101115.69;5295676;32;34252;-67
2023/04/10 03:33:54;;;;;;;;;;;;;;;7.48;65.83;101108.94;5316979;32;34347;-79
2023/04/10 03:36:56;;;;;;;;;;;;;;;7.29;65.88;101106.59;5311870;32;33725;-79
2023/04/10 03:39:58;;;;;;;;;;;;;;;7.26;66.27;101108.37;5309435;32;34393;-67
2023/04/10 03:43:00;;;;;;;;;;;;;;;7.19;66.41;101104.97;5311082;32;33288;-72
2023/04/10 03:46:03;;;;;;;;;;;;;;;6.72;68.23;101116.03;5323765;32;32588;-68
2023/04/10 03:49:05;;;;;;;;;;;;;;;7.83;64.27;101100.53;5310009;32;34539;-78
2023/04/10 03:52:07;;;;;;;;;;;;;;;7.85;63.17;101101.34;5309241;32;33500;-66
2023/04/10 03:55:09;;;;;;;;;;;;;;;6.88;66.34;101116.72;5304011;32;34018;-66
2023/04/10 03:58:12;;;;;;;;;;;;;;;7.04;65.86;101120.88;5308112;32;44486;-78
2023/04/10 04:01:14;;;;;;;;;;;;;;;7.04;66.63;101116.50;5323287;32;33186;-66
2023/04/10 04:04:16;;;;;;;;;;;;;;;7.60;64.49;101116.59;5313038;32;33429;-78
2023/04/10 04:07:18;;;;;;;;;;;;;;;7.95;62.89;101115.16;5308208;32;34315;-78
2023/04/10 04:10:20;;;;;;;;;;;;;;;7.06;65.09;101114.72;5292757;32;33979;-74
2023/04/10 04:13:23;;;;;;;;;;;;;;;6.59;67.59;101127.50;5303175;32;33392;-65
2023/04/10 04:16:24;;;;;;;;;;;;;;;6.50;68.58;101133.69;5306781;32;33979;-66
2023/04/10 04:19:26;;;;;;;;;;;;;;;6.84;67.99;101128.97;5316844;32;34151;-73
2023/04/10 04:22:28;;;;;;;;;;;;;;;6.56;68.64;101133.62;5320895;32;33261;-80
2023/04/10 04:25:30;;;;;;;;;;;;;;;6.73;67.46;101136.06;5309964;32;33816;-74
2023/04/10 04:28:32;;;;;;;;;;;;;;;6.19;69.40;101141.84;5309233;32;33536;-80
2023/04/10 04:31:34;;;;;;;;;;;;;;;6.58;69.44;101139.72;5291770;32;34021;-68
2023/04/10 04:34:36;;;;;;;;;;;;;;;6.74;68.42;101137.78;5327057;32;33370;-67
2023/04/10 04:37:38;;;;;;;;;;;;;;;6.64;68.08;101134.44;5335999;32;33777;-67
2023/04/10 04:40:40;;;;;;;;;;;;;;;6.54;69.09;101131.91;5324821;32;33730;-68
2023/04/10 04:43:42;;;;;;;;;;;;;;;7.24;66.88;101131.94;5336441;32;47150;-78
2023/04/10 04:46:44;;;;;;;;;;;;;;;7.58;64.48;101141.91;5314952;32;35433;-66
2023/04/10 04:49:46;;;;;;;;;;;;;;;7.24;65.82;101144.12;5337403;32;33464;-79
2023/04/10 04:52:47;;;;;;;;;;;;;;;6.67;68.26;101157.03;5297568;32;33971;-77
2023/04/10 04:55:49;;;;;;;;;;;;;;;6.71;68.68;101164.81;5314860;32;33556;-68
2023/04/10 04:58:51;;;;;;;;;;;;;;;6.48;68.87;101162.44;5319169;32;34630;-66
2023/04/10 05:01:54;;;;;;;;;;;;;;;6.66;69.22;101161.38;5308239;32;33972;-78
2023/04/10 05:04:56;;;;;;;;;;;;;;;6.70;68.37;101164.84;5324088;32;33539;-79
2023/04/10 05:07:58;;;;;;;;;;;;;;;7.00;68.23;101164.47;5312672;32;32974;-67
2023/04/10 05:11:00;;;;;;;;;;;;;;;7.82;65.38;101164.22;5309169;32;33694;-79
2023/04/10 05:14:02;;;;;;;;;;;;;;;7.71;64.82;101166.13;5309719;32;35450;-79
2023/04/10 05:17:04;;;;;;;;;;;;;;;8.40;63.13;101168.53;5313957;32;34159;-67
2023/04/10 05:20:06;;;;;;;;;;;;;;;8.45;61.97;101169.31;5318815;32;34951;-67
2023/04/10 05:23:09;;;;;;;;;;;;;;;8.28;62.10;101164.34;5310814;32;33523;-79
2023/04/10 05:26:11;;;;;;;;;;;;;;;8.15;61.91;101175.91;5320625;32;45175;-67
2023/04/10 05:29:14;;;;;;;;;;;;;;;9.36;59.36;101158.78;5302050;32;33217;-80
2023/04/10 05:32:16;;;;;;;;;;;;;;;9.28;58.68;101165.09;5310569;32;34868;-66
2023/04/10 05:35:18;;;;;;;;;;;;;;;8.29;61.77;101165.19;5321560;32;33773;-66
2023/04/10 05:38:20;;;;;;;;;;;;;;;8.77;60.89;101166.13;5324359;32;33426;-67
2023/04/10 05:41:22;;;;;;;;;;;;;;;8.70;61.14;101172.37;5338124;32;33222;-67
2023/04/10 05:44:23;;;;;;;;;;;;;;;8.65;60.61;101180.31;5320686;32;33583;-68
2023/04/10 05:47:28;;;;;;;;;;;;;;;8.87;60.65;101162.41;5322099;32;34137;-73
2023/04/10 05:50:30;;;;;;;;;;;;;;;9.32;58.26;101169.34;5318769;32;33077;-79
2023/04/10 05:53:32;;;;;;;;;;;;;;;9.99;57.75;101170.47;5320488;32;33707;-69
2023/04/10 05:56:34;;;;;;;;;;;;;;;10.34;56.85;101160.84;5310615;32;32787;-66
2023/04/10 05:59:36;;;;;;;;;;;;;;;10.37;56.59;101166.00;5297024;32;33960;-66
2023/04/10 06:02:38;;;;;;;;;;;;;;;9.62;57.04;101163.44;5320464;32;35537;-78
2023/04/10 06:05:40;;;;;;;;;;;;;;;10.30;56.22;101158.31;5316390;32;44972;-67
2023/04/10 06:08:42;;;;;;;;;;;;;;;12.45;50.13;101155.37;5321043;32;34212;-80
2023/04/10 06:11:44;;;;;;;;;;;;;;;11.50;52.60;101155.81;5270132;32;823274;-78
2023/04/10 06:14:46;;;;;;;;;;;;;;;11.77;51.91;101155.84;5320971;32;34067;-78
2023/04/10 06:17:49;;;;;;;;;;;;;;;11.64;51.49;101155.37;5295139;32;33891;-78
2023/04/10 06:20:51;;;;;;;;;;;;;;;11.38;52.70;101154.41;5318630;32;33655;-67
2023/04/10 06:23:53;;;;;;;;;;;;;;;11.88;50.57;101161.69;5310570;32;33755;-67
2023/04/10 06:26:55;;;;;;;;;;;;;;;11.68;52.05;101161.41;5294737;32;33817;-77
2023/04/10 06:29:57;;;;;;;;;;;;;;;11.69;51.80;101158.72;5309388;32;34201;-72
2023/04/10 06:32:59;;;;;;;;;;;;;;;12.43;50.38;101157.22;5308720;32;34048;-67
2023/04/10 06:36:02;;;;;;;;;;;;;;;12.37;50.26;101167.97;5336127;32;34719;-78
2023/04/10 06:39:05;;;;;;;;;;;;;;;12.46;49.39;101157.09;5308962;32;33995;-67
2023/04/10 06:42:07;;;;;;;;;;;;;;;12.65;49.07;101158.16;5288676;32;33715;-67
2023/04/10 06:45:09;;;;;;;;;;;;;;;13.29;47.64;101154.97;5323536;32;34213;-79
2023/04/10 06:48:11;;;;;;;;;;;;;;;12.55;48.75;101166.44;5296039;32;44818;-68
2023/04/10 06:51:13;;;;;;;;;;;;;;;14.80;44.27;101145.22;5313281;32;33729;-68
2023/04/10 06:54:15;;;;;;;;;;;;;;;16.53;39.71;101145.72;5310983;32;34459;-79
2023/04/10 06:57:17;;;;;;;;;;;;;;;17.29;37.91;101136.34;5341633;32;33508;-68
2023/04/10 07:00:19;;;;;;;;;;;;;;;18.06;36.07;101140.00;5325682;32;34202;-76
2023/04/10 07:03:21;;;;;;;;;;;;;;;16.70;38.81;101137.78;5325583;32;33307;-67
2023/04/10 07:06:23;;;;;;;;;;;;;;;18.10;35.84;101128.25;5321604;32;34083;-79
2023/04/10 07:09:26;;;;;;;;;;;;;;;17.52;36.35;101134.22;5322546;32;33122;-79
2023/04/10 07:12:28;;;;;;;;;;;;;;;17.74;36.34;101132.09;5327317;32;33661;-68
2023/04/10 07:15:30;;;;;;;;;;;;;;;19.06;33.61;101130.38;5325519;32;34016;-68
2023/04/10 07:18:32;;;;;;;;;;;;;;;17.29;36.53;101136.34;5323965;32;34463;-68
2023/04/10 07:21:34;;;;;;;;;;;;;;;20.16;30.64;101125.94;5328761;32;33643;-68
2023/04/10 07:24:36;;;;;;;;;;;;;;;19.21;31.91;101120.59;5296395;32;33035;-68
2023/04/10 07:27:38;;;;;;;;;;;;;;;17.95;33.82;101126.47;5321296;32;34119;-79
2023/04/10 07:30:40;;;;;;;;;;;;;;;18.61;31.53;101118.97;5289245;32;35381;-77
2023/04/10 07:33:42;;;;;;;;;;;;;;;20.41;29.25;101113.56;5317279;32;47522;-68
2023/04/10 07:36:44;;;;;;;;;;;;;;;19.94;29.50;101106.97;5328090;32;34038;-78
2023/04/10 07:39:46;;;;;;;;;;;;;;;18.88;31.58;101111.09;5317577;32;32960;-68
2023/04/10 07:42:49;;;;;;;;;;;;;;;18.52;32.00;101110.66;5309821;32;34019;-69
2023/04/10 07:45:54;;;;;;;;;;;;;;;18.81;30.79;101101.78;5310062;32;34112;-79
2023/04/10 07:48:56;;;;;;;;;;;;;;;18.76;31.23;101101.22;5308946;32;33837;-69
2023/04/10 07:51:58;;;;;;;;;;;;;;;18.66;31.00;101105.34;5317168;32;33020;-69
2023/04/10 07:55:03;;;;;;;;;;;;;;;19.53;29.65;101102.53;5335886;32;33731;-73
2023/04/10 07:58:05;;;;;;;;;;;;;;;19.41;29.51;101106.84;5295168;32;33273;-80
2023/04/10 08:01:07;;;;;;;;;;;;;;;19.75;29.06;101096.66;5319141;32;33109;-79
2023/04/10 08:04:10;;;;;;;;;;;;;;;19.29;29.67;101094.31;5313317;32;34025;-68
2023/04/10 08:07:12;;;;;;;;;;;;;;;20.58;27.90;101091.94;5311078;32;45130;-78
2023/04/10 08:10:14;;;;;;;;;;;;;;;19.10;29.81;101099.09;5332355;32;35364;-67
2023/04/10 08:13:16;;;;;;;;;;;;;;;19.49;29.47;101095.69;5326354;32;33312;-78
2023/04/10 08:16:20;;;;;;;;;;;;;;;19.60;29.28;101093.22;5330925;32;33899;-67
2023/04/10 08:19:21;;;;;;;;;;;;;;;19.20;28.98;101094.91;5311915;32;33713;-69
2023/04/10 08:22:23;;;;;;;;;;;;;;;19.57;29.05;101088.03;5319825;32;33670;-74
2023/04/10 08:25:25;;;;;;;;;;;;;;;19.79;27.86;101094.66;5311451;32;34195;-79
2023/04/10 08:28:27;;;;;;;;;;;;;;;19.85;28.08;101094.25;5294703;32;34816;-67
2023/04/10 08:31:29;;;;;;;;;;;;;;;19.46;27.71;101086.09;5301174;32;33882;-68
2023/04/10 08:34:31;;;;;;;;;;;;;;;19.64;27.50;101085.84;5323226;32;34000;-69
2023/04/10 08:37:33;;;;;;;;;;;;;;;18.01;29.38;101097.72;5333863;32;33834;-75
2023/04/10 08:40:36;;;;;;;;;;;;;;;18.81;28.23;101082.28;5304694;32;33444;-78
2023/04/10 08:43:38;;;;;;;;;;;;;;;19.67;26.64;101077.66;5315140;32;33645;-67
2023/04/10 08:46:44;;;;;;;;;;;;;;;20.81;24.34;101066.28;5325880;32;34335;-67
2023/04/10 08:49:56;;;;;;;;;;;;;;;22.27;23.21;101057.22;5308317;32;44835;-67
2023/04/10 08:52:58;;;;;;;;;;;;;;;19.83;25.59;101072.16;5308621;32;33079;-78
2023/04/10 08:56:00;;;;;;;;;;;;;;;20.07;25.45;101070.50;5296369;32;33762;-68
2023/04/10 08:59:02;;;;;;;;;;;;;;;21.06;24.68;101068.06;5322512;32;33556;-75
2023/04/10 09:02:04;;;;;;;;;;;;;;;20.99;23.76;101064.94;5307256;32;34479;-69
2023/04/10 09:05:09;;;;;;;;;;;;;;;21.67;23.32;101060.87;5293236;32;33683;-78
2023/04/10 09:08:13;;;;;;;;;;;;;;;20.53;24.24;101062.88;5327116;32;45707;-67
2023/04/10 09:11:15;;;;;;;;;;;;;;;22.61;22.49;101052.75;5320837;32;34179;-78
2023/04/10 09:14:19;;;;;;;;;;;;;;;22.56;22.34;101054.94;5339860;32;34068;-69
2023/04/10 09:17:22;;;;;;;;;;;;;;;21.48;23.63;101052.53;5301964;32;34310;-74
2023/04/10 09:20:25;;;;;;;;;;;;;;;19.42;25.73;101055.25;5308165;32;33731;-68
2023/04/10 09:23:27;;;;;;;;;;;;;;;21.34;23.39;101042.84;5320271;32;33967;-69
2023/04/10 09:26:30;;;;;;;;;;;;;;;20.18;24.40;101051.09;5320624;32;34732;-68
2023/04/10 09:29:40;;;;;;;;;;;;;;;21.96;23.03;101042.66;5326785;32;33935;-68
2023/04/10 09:32:42;;;;;;;;;;;;;;;22.61;22.02;101035.84;5289868;32;44626;-77
2023/04/10 09:35:44;;;;;;;;;;;;;;;22.77;21.50;101033.63;5308510;32;33959;-78
2023/04/10 09:38:49;;;;;;;;;;;;;;;19.97;24.68;101043.59;5308957;32;33594;-78
2023/04/10 09:41:53;;;;;;;;;;;;;;;18.60;26.11;101041.84;5302985;32;34164;-79
2023/04/10 09:44:55;;;;;;;;;;;;;;;19.78;25.02;101039.63;5315303;32;35080;-68
2023/04/10 09:48:02;;;;;;;;;;;;;;;19.57;25.03;101023.19;5310265;32;33259;-77
2023/04/10 09:51:04;;;;;;;;;;;;;;;19.46;25.70;101027.44;5310614;32;33706;-68
2023/04/10 09:54:06;;;;;;;;;;;;;;;18.54;26.18;101031.56;5310975;32;33665;-78
2023/04/10 09:57:08;;;;;;;;;;;;;;;21.13;23.52;101021.19;5317149;32;33282;-68
2023/04/10 10:00:11;;;;;;;;;;;;;;;21.44;23.27;101022.47;5306954;32;33650;-68
2023/04/10 10:03:13;;;;;;;;;;;;;;;21.39;23.27;101019.31;5285542;32;45853;-69
2023/04/10 10:06:16;;;;;;;;;;;;;;;20.88;23.31;101014.13;5317378;32;33757;-69
2023/04/10 10:09:17;;;;;;;;;;;;;;;20.13;25.09;101016.72;5300691;32;34023;-68
2023/04/10 10:12:49;;;;;;;;;;;;;;;19.07;26.50;101016.72;5334433;32;34301;-69
2023/04/10 10:16:03;;;;;;;;;;;;;;;18.93;27.08;101017.56;5293220;32;33513;-79
2023/04/10 10:19:12;;;;;;;;;;;;;;;18.54;27.49;101007.59;5319609;32;35479;-74
2023/04/10 10:22:14;;;;;;;;;;;;;;;18.16;27.25;101009.97;5318901;32;45394;-77
2023/04/10 10:25:18;;;;;;;;;;;;;;;17.63;29.21;101017.50;5310956;32;33678;-77
2023/04/10 10:28:20;;;;;;;;;;;;;;;17.31;29.42;101014.91;5330164;32;33295;-68
2023/04/10 10:31:23;;;;;;;;;;;;;;;17.53;29.22;101013.69;5276625;32;33085;-79
2023/04/10 10:34:25;;;;;;;;;;;;;;;17.39;29.34;101013.59;5339238;32;33705;-78
2023/04/10 10:37:27;;;;;;;;;;;;;;;17.87;28.64;101002.81;5302283;32;33841;-77
2023/04/10 10:40:47;;;;;;;;;;;;;;;16.63;30.81;101008.97;5298292;32;33589;-67
2023/04/10 10:43:49;;;;;;;;;;;;;;;16.57;31.09;101006.66;5315752;32;45728;-68
2023/04/10 10:47:03;;;;;;;;;;;;;;;15.98;31.48;101015.97;5310095;32;33466;-68
2023/04/10 10:50:05;;;;;;;;;;;;;;;16.89;30.55;101010.22;5309578;32;33752;-77
2023/04/10 10:53:07;;;;;;;;;;;;;;;16.43;31.46;101001.25;5325678;32;34001;-77
2023/04/10 10:56:19;;;;;;;;;;;;;;;16.46;32.13;101004.56;5317272;32;33741;-68
2023/04/10 10:59:40;;;;;;;;;;;;;;;17.94;29.13;100997.97;5324869;32;34145;-80
2023/04/10 11:02:42;;;;;;;;;;;;;;;17.17;30.14;101001.56;5319260;32;43840;-67
2023/04/10 11:05:48;;;;;;;;;;;;;;;15.44;33.03;101002.72;5313374;32;35221;-68
2023/04/10 11:08:54;;;;;;;;;;;;;;;16.03;32.78;101000.66;5304537;32;34359;-68
2023/04/10 11:11:57;;;;;;;;;;;;;;;16.50;32.04;100997.31;5305556;32;33705;-68
2023/04/10 11:15:00;;;;;;;;;;;;;;;16.12;32.67;100996.69;5313149;32;33803;-73
2023/04/10 11:18:02;;;;;;;;;;;;;;;16.16;32.43;100999.09;5311641;32;33021;-77
2023/04/10 11:21:07;;;;;;;;;;;;;;;16.47;32.31;100993.00;5323611;32;33022;-68
2023/04/10 11:24:09;;;;;;;;;;;;;;;15.63;34.34;101000.06;5324878;32;33860;-79
2023/04/10 11:27:31;;;;;;;;;;;;;;;15.62;34.66;100994.84;5336245;32;44536;-77
2023/04/10 11:30:34;;;;;;;;;;;;;;;15.14;35.27;101005.09;5307279;32;33370;-78
2023/04/10 11:33:36;;;;;;;;;;;;;;;16.64;32.97;101000.06;5305694;32;33717;-78
2023/04/10 11:36:39;;;;;;;;;;;;;;;16.05;34.01;100996.16;5327217;32;33805;-79
2023/04/10 11:39:41;;;;;;;;;;;;;;;16.32;33.52;100987.69;5313162;32;44615;-67
2023/04/10 11:42:43;;;;;;;;;;;;;;;15.88;34.64;100996.16;5330157;32;34026;-78
2023/04/10 11:45:45;;;;;;;;;;;;;;;15.84;34.52;100992.84;5323788;32;32677;-68
2023/04/10 11:48:51;;;;;;;;;;;;;;;15.60;35.53;101002.00;5334633;32;34360;-78
2023/04/10 11:51:53;;;;;;;;;;;;;;;15.65;35.99;100992.06;5318447;32;34236;-78
2023/04/10 11:54:55;;;;;;;;;;;;;;;15.42;36.53;100995.81;5307686;32;33962;-67
2023/04/10 11:57:57;;;;;;;;;;;;;;;16.12;35.69;101002.84;5322369;32;34273;-78
2023/04/10 12:01:00;;;;;;;;;;;;;;;15.23;41.14;101005.59;5308912;32;33750;-69
2023/04/10 12:04:02;;;;;;;;;;;;;;;15.40;39.06;101002.97;5320377;32;34510;-67
2023/04/10 12:07:04;;;;;;;;;;;;;;;15.31;40.36;101000.78;5312134;32;34405;-68
2023/04/10 12:10:07;;;;;;;;;;;;;;;16.29;39.19;100994.00;5307823;32;34498;-67
2023/04/10 12:13:22;;;;;;;;;;;;;;;15.56;39.92;100987.16;5297674;32;33516;-78
2023/04/10 12:16:26;;;;;;;;;;;;;;;15.32;39.71;100979.50;5294314;32;33090;-68
2023/04/10 12:19:28;;;;;;;;;;;;;;;15.75;39.87;100985.34;5309262;32;33789;-73
2023/04/10 12:22:30;;;;;;;;;;;;;;;15.98;38.52;100978.88;5312909;32;33010;-68
2023/04/10 12:25:34;;;;;;;;;;;;;;;16.45;36.82;100968.38;5325926;32;33567;-67
2023/04/10 12:28:36;;;;;;;;;;;;;;;16.54;36.32;100967.00;5321320;32;33566;-77
2023/04/10 12:31:38;;;;;;;;;;;;;;;15.61;37.75;100964.81;5304610;32;33646;-78
2023/04/10 12:34:41;;;;;;;;;;;;;;;15.48;38.10;100969.00;5334542;32;45368;-67
2023/04/10 12:37:49;;;;;;;;;;;;;;;16.39;36.43;100951.94;5317346;32;33008;-66
2023/04/10 12:40:58;;;;;;;;;;;;;;;16.08;36.88;100944.75;5326207;32;34133;-74
2023/04/10 12:44:10;;;;;;;;;;;;;;;15.97;37.01;100932.06;5309776;32;34221;-74
2023/04/10 12:47:12;;;;;;;;;;;;;;;17.33;34.90;100919.19;5307398;32;45336;-68
2023/04/10 12:50:14;;;;;;;;;;;;;;;17.49;34.28;100917.31;5309583;32;34838;-77
2023/04/10 12:53:16;;;;;;;;;;;;;;;20.61;29.19;100898.56;5295702;32;34292;-68
2023/04/10 12:56:19;;;;;;;;;;;;;;;23.10;25.66;100889.81;5322533;32;33876;-67
2023/04/10 12:59:21;;;;;;;;;;;;;;;22.86;25.72;100888.22;5310443;32;33699;-73
2023/04/10 13:02:24;;;;;;;;;;;;;;;22.62;25.41;100887.50;5321687;32;32055;-68
2023/04/10 13:05:26;;;;;;;;;;;;;;;19.76;29.09;100893.00;5302176;32;33789;-69
2023/04/10 13:08:31;;;;;;;;;;;;;;;19.12;30.29;100894.69;5317598;32;35047;-68
2023/04/10 13:11:32;;;;;;;;;;;;;;;19.14;30.62;100887.47;5314457;32;34194;-68
2023/04/10 13:14:35;;;;;;;;;;;;;;;20.49;28.66;100879.81;5307400;32;34060;-78
2023/04/10 13:17:37;;;;;;;;;;;;;;;20.10;29.04;100867.50;5308781;32;33558;-77
2023/04/10 13:20:39;;;;;;;;;;;;;;;17.89;32.68;100875.06;5309782;32;33639;-74
2023/04/10 13:23:41;;;;;;;;;;;;;;;19.17;30.54;100865.94;5333696;32;44316;-68
2023/04/10 13:26:43;;;;;;;;;;;;;;;18.99;31.38;100859.16;5325993;32;33613;-68
2023/04/10 13:29:45;;;;;;;;;;;;;;;17.19;34.11;100860.69;5293036;32;33290;-78
2023/04/10 13:32:47;;;;;;;;;;;;;;;18.81;30.90;100854.13;5298371;32;33466;-78
2023/04/10 13:35:49;;;;;;;;;;;;;;;18.21;31.88;100850.91;5310081;32;34027;-69
2023/04/10 13:38:51;;;;;;;;;;;;;;;17.00;33.61;100851.19;5321798;32;33127;-79
2023/04/10 13:41:54;;;;;;;;;;;;;;;17.73;32.85;100839.75;5295660;32;34492;-78
2023/04/10 13:44:56;;;;;;;;;;;;;;;17.10;34.30;100840.00;5321640;32;35785;-73
2023/04/10 13:47:58;;;;;;;;;;;;;;;18.39;32.11;100831.97;5309328;32;33438;-73
2023/04/10 13:51:00;;;;;;;;;;;;;;;18.21;32.09;100825.16;5303024;32;33699;-78
2023/04/10 13:54:03;;;;;;;;;;;;;;;16.96;33.80;100827.53;5329074;32;33717;-74
2023/04/10 13:57:05;;;;;;;;;;;;;;;17.55;33.02;100812.47;5321115;32;33198;-79
2023/04/10 14:00:07;;;;;;;;;;;;;;;17.58;32.17;100814.91;5339343;32;32661;-67
2023/04/10 14:03:11;;;;;;;;;;;;;;;16.68;34.10;100817.63;5311950;32;33572;-67
2023/04/10 14:06:13;;;;;;;;;;;;;;;17.47;32.97;100801.47;5327628;32;46908;-68
2023/04/10 14:09:15;;;;;;;;;;;;;;;17.77;32.46;100791.59;5306350;32;33172;-67
2023/04/10 14:12:18;;;;;;;;;;;;;;;17.69;32.71;100785.87;5299281;32;34005;-67
2023/04/10 14:15:20;;;;;;;;;;;;;;;17.10;33.27;100785.09;5304290;32;35039;-67
2023/04/10 14:18:22;;;;;;;;;;;;;;;18.11;31.38;100781.50;5306871;32;33741;-74
2023/04/10 14:21:23;;;;;;;;;;;;;;;18.46;31.05;100779.19;5321928;32;33792;-75
2023/04/10 14:24:25;;;;;;;;;;;;;;;17.60;31.99;100773.19;5294073;32;33260;-77
2023/04/10 14:27:27;;;;;;;;;;;;;;;17.16;32.88;100759.97;5318988;32;33970;-68
2023/04/10 14:30:31;;;;;;;;;;;;;;;17.72;31.65;100763.63;5290449;32;34212;-68
2023/04/10 14:33:33;;;;;;;;;;;;;;;18.93;30.14;100757.44;5317491;32;33502;-78
2023/04/10 14:36:36;;;;;;;;;;;;;;;19.02;30.12;100749.78;5322793;32;34216;-66
2023/04/10 14:39:37;;;;;;;;;;;;;;;18.88;29.95;100748.91;5308207;32;33656;-77
2023/04/10 14:42:39;;;;;;;;;;;;;;;18.57;30.53;100743.91;5306945;32;33914;-77
2023/04/10 14:45:41;;;;;;;;;;;;;;;18.27;31.03;100742.31;5306016;32;44905;-78
2023/04/10 14:48:43;;;;;;;;;;;;;;;18.58;30.68;100727.81;5320254;32;36360;-68
2023/04/10 14:51:47;;;;;;;;;;;;;;;17.84;31.54;100733.59;5313192;32;33804;-77
2023/04/10 14:54:49;;;;;;;;;;;;;;;18.62;30.50;100731.16;5327899;32;33676;-75
2023/04/10 14:57:51;;;;;;;;;;;;;;;17.88;31.54;100727.12;5336794;32;33658;-69
2023/04/10 15:00:53;;;;;;;;;;;;;;;18.22;30.62;100711.63;5328426;32;33549;-78
2023/04/10 15:03:55;;;;;;;;;;;;;;;17.94;31.13;100720.56;5312537;32;33549;-73
2023/04/10 15:06:57;;;;;;;;;;;;;;;18.58;30.10;100706.53;5307494;32;33301;-67
2023/04/10 15:09:59;;;;;;;;;;;;;;;17.87;31.28;100714.78;5331176;32;33416;-67
2023/04/10 15:13:02;;;;;;;;;;;;;;;18.58;30.43;100708.34;5307884;32;33434;-75
2023/04/10 15:16:05;;;;;;;;;;;;;;;18.43;30.25;100699.59;5311556;32;33670;-67
2023/04/10 15:19:06;;;;;;;;;;;;;;;17.21;32.06;100697.66;5322466;32;33739;-67
2023/04/10 15:22:08;;;;;;;;;;;;;;;17.87;30.98;100691.69;5312936;32;33046;-78
2023/04/10 15:25:11;;;;;;;;;;;;;;;17.40;31.79;100694.69;5336713;32;44523;-68
2023/04/10 15:28:13;;;;;;;;;;;;;;;18.07;30.82;100681.56;5310825;32;33200;-68
2023/04/10 15:31:15;;;;;;;;;;;;;;;19.00;29.48;100685.06;5313083;32;34202;-77
2023/04/10 15:34:17;;;;;;;;;;;;;;;17.95;30.65;100677.91;5298977;32;34125;-77
2023/04/10 15:37:20;;;;;;;;;;;;;;;19.20;29.22;100673.91;5293845;32;33140;-68
2023/04/10 15:40:22;;;;;;;;;;;;;;;17.37;32.07;100680.75;5323712;32;33801;-67
2023/04/10 15:43:24;;;;;;;;;;;;;;;18.80;29.82;100673.12;5308785;32;34306;-67
2023/04/10 15:46:26;;;;;;;;;;;;;;;18.79;29.92;100679.44;5309114;32;34692;-74